createdAt,value
2019-06-07T00:00:29.617Z,0.00
2019-06-07T00:01:11.653Z,0.00
2019-06-07T00:02:13.304Z,0.00
2019-06-07T00:03:24.017Z,0.00
2019-06-07T00:04:13.485Z,0.00
2019-06-07T00:05:14.971Z,0.00
2019-06-07T00:06:16.319Z,0.00
2019-06-07T00:07:12.569Z,0.00
2019-06-07T00:08:19.847Z,0.00
2019-06-07T00:09:12.691Z,0.00
2019-06-07T00:10:15.334Z,0.00
2019-06-07T00:11:15.645Z,0.00
2019-06-07T00:12:14.050Z,0.00
2019-06-07T00:13:12.926Z,0.00
2019-06-07T00:14:14.259Z,0.00
2019-06-07T00:15:15.246Z,0.00
2019-06-07T00:16:11.967Z,0.00
2019-06-07T00:17:13.727Z,0.00
2019-06-07T00:18:14.376Z,0.00
2019-06-07T00:19:12.073Z,0.00
2019-06-07T00:20:13.864Z,0.00
2019-06-07T00:21:11.914Z,0.00
2019-06-07T00:22:19.740Z,0.00
2019-06-07T00:23:12.184Z,0.00
2019-06-07T00:24:13.059Z,0.00
2019-06-07T00:25:13.393Z,0.00
2019-06-07T00:26:10.878Z,0.00
2019-06-07T00:27:11.610Z,0.00
2019-06-07T00:28:10.763Z,0.00
2019-06-07T00:29:13.817Z,0.00
2019-06-07T00:30:34.921Z,0.00
2019-06-07T00:31:11.525Z,0.00
2019-06-07T00:32:11.691Z,0.00
2019-06-07T00:33:15.334Z,0.00
2019-06-07T00:34:11.854Z,0.00
2019-06-07T00:35:11.934Z,0.00
2019-06-07T00:36:14.097Z,0.00
2019-06-07T00:37:11.147Z,0.00
2019-06-07T00:38:11.799Z,0.00
2019-06-07T00:39:11.381Z,0.00
2019-06-07T00:40:16.211Z,0.00
2019-06-07T00:41:10.160Z,0.00
2019-06-07T00:42:10.848Z,0.00
2019-06-07T00:43:14.200Z,0.00
2019-06-07T00:44:10.179Z,0.00
2019-06-07T00:45:11.208Z,0.00
2019-06-07T00:46:14.070Z,0.00
2019-06-07T00:47:10.678Z,0.00
2019-06-07T00:48:15.992Z,0.00
2019-06-07T00:49:12.088Z,0.00
2019-06-07T00:50:11.112Z,0.00
2019-06-07T00:51:11.255Z,0.00
2019-06-07T00:52:11.095Z,0.00
2019-06-07T00:53:26.783Z,0.00
2019-06-07T00:54:09.708Z,0.00
2019-06-07T00:55:09.634Z,0.00
2019-06-07T00:56:09.623Z,0.00
2019-06-07T00:57:09.589Z,0.00
2019-06-07T00:58:09.533Z,0.00
2019-06-07T00:59:11.700Z,0.00
2019-06-07T01:00:09.460Z,0.00
2019-06-07T01:01:09.429Z,0.00
2019-06-07T01:02:09.402Z,0.00
2019-06-07T01:03:09.382Z,0.00
2019-06-07T01:04:09.309Z,0.00
2019-06-07T01:05:09.428Z,0.00
2019-06-07T01:06:09.236Z,0.00
2019-06-07T01:07:09.223Z,0.00
2019-06-07T01:08:09.165Z,0.00
2019-06-07T01:09:09.122Z,0.00
2019-06-07T01:10:09.087Z,0.00
2019-06-07T01:11:09.048Z,0.00
2019-06-07T01:12:09.030Z,0.00
2019-06-07T01:13:08.977Z,0.00
2019-06-07T01:14:08.954Z,0.00
2019-06-07T01:15:08.901Z,0.00
2019-06-07T01:16:08.868Z,0.00
2019-06-07T01:17:23.669Z,0.00
2019-06-07T01:19:08.756Z,0.00
2019-06-07T01:20:08.725Z,0.00
2019-06-07T01:21:08.686Z,0.00
2019-06-07T01:22:08.714Z,0.00
2019-06-07T01:23:51.795Z,0.00
2019-06-07T01:24:12.313Z,0.00
2019-06-07T01:25:08.543Z,0.00
2019-06-07T01:26:08.514Z,0.00
2019-06-07T01:27:08.465Z,0.00
2019-06-07T01:28:08.431Z,0.00
2019-06-07T01:29:08.428Z,0.00
2019-06-07T01:30:08.371Z,0.00
2019-06-07T01:31:08.333Z,0.00
2019-06-07T01:32:08.287Z,0.00
2019-06-07T01:33:08.252Z,0.00
2019-06-07T01:34:08.211Z,0.00
2019-06-07T01:35:08.188Z,0.00
2019-06-07T01:36:08.123Z,0.00
2019-06-07T01:37:08.112Z,0.00
2019-06-07T01:38:08.057Z,0.00
2019-06-07T01:39:08.026Z,0.00
2019-06-07T01:40:07.994Z,0.00
2019-06-07T01:41:07.941Z,0.00
2019-06-07T01:42:07.915Z,0.00
2019-06-07T01:43:07.874Z,0.00
2019-06-07T01:44:07.832Z,0.00
2019-06-07T01:45:07.801Z,0.00
2019-06-07T01:46:07.756Z,0.00
2019-06-07T01:47:07.726Z,0.00
2019-06-07T01:48:07.691Z,0.00
2019-06-07T01:49:07.655Z,0.00
2019-06-07T01:50:07.617Z,0.00
2019-06-07T01:51:07.578Z,0.00
2019-06-07T01:52:07.545Z,0.00
2019-06-07T01:53:07.502Z,0.00
2019-06-07T01:54:49.444Z,0.00
2019-06-07T01:55:07.468Z,0.00
2019-06-07T01:56:07.444Z,0.00
2019-06-07T01:57:07.445Z,0.00
2019-06-07T01:58:07.343Z,0.00
2019-06-07T01:59:07.311Z,0.00
2019-06-07T02:00:07.253Z,0.00
2019-06-07T02:01:07.241Z,0.00
2019-06-07T02:02:07.189Z,0.00
2019-06-07T02:03:07.184Z,0.00
2019-06-07T02:04:07.123Z,0.00
2019-06-07T02:05:07.120Z,0.00
2019-06-07T02:06:07.066Z,0.00
2019-06-07T02:07:07.068Z,0.00
2019-06-07T02:08:07.025Z,0.00
2019-06-07T02:09:06.938Z,0.00
2019-06-07T02:10:06.887Z,0.00
2019-06-07T02:11:06.848Z,0.00
2019-06-07T02:12:25.203Z,0.00
2019-06-07T02:13:06.772Z,0.00
2019-06-07T02:14:06.742Z,0.00
2019-06-07T02:15:06.696Z,0.00
2019-06-07T02:16:06.666Z,0.00
2019-06-07T02:17:06.625Z,0.00
2019-06-07T02:18:06.589Z,0.00
2019-06-07T02:19:06.568Z,4.00
2019-06-07T02:20:06.517Z,4.00
2019-06-07T02:21:06.484Z,4.00
2019-06-07T02:22:06.450Z,4.00
2019-06-07T02:23:06.412Z,0.00
2019-06-07T02:24:06.368Z,4.00
2019-06-07T02:25:35.134Z,4.00
2019-06-07T02:26:06.320Z,8.00
2019-06-07T02:27:06.280Z,8.00
2019-06-07T02:28:27.656Z,8.00
2019-06-07T02:29:06.231Z,8.00
2019-06-07T02:30:36.783Z,8.00
2019-06-07T02:31:06.119Z,12.00
2019-06-07T02:32:06.104Z,12.00
2019-06-07T02:33:06.084Z,16.00
2019-06-07T02:34:06.036Z,16.00
2019-06-07T02:35:06.030Z,20.00
2019-06-07T02:36:05.951Z,24.00
2019-06-07T02:37:05.934Z,24.00
2019-06-07T02:38:05.867Z,28.00
2019-06-07T02:39:05.832Z,32.00
2019-06-07T02:40:05.802Z,36.00
2019-06-07T02:41:05.805Z,44.00
2019-06-07T02:42:05.729Z,48.00
2019-06-07T02:43:05.678Z,52.00
2019-06-07T02:44:05.638Z,60.00
2019-06-07T02:45:05.608Z,68.00
2019-06-07T02:46:25.397Z,76.00
2019-06-07T02:47:05.533Z,84.00
2019-06-07T02:48:05.498Z,96.00
2019-06-07T02:49:05.457Z,100.00
2019-06-07T02:50:05.416Z,112.00
2019-06-07T02:51:05.384Z,120.00
2019-06-07T02:52:05.346Z,136.00
2019-06-07T02:53:05.312Z,152.00
2019-06-07T02:54:05.276Z,172.00
2019-06-07T02:55:05.232Z,184.00
2019-06-07T02:56:37.425Z,200.00
2019-06-07T02:57:05.181Z,220.00
2019-06-07T02:58:05.177Z,240.00
2019-06-07T02:59:05.108Z,268.00
2019-06-07T03:00:17.076Z,292.00
2019-06-07T03:01:09.348Z,324.00
2019-06-07T03:02:04.996Z,356.00
2019-06-07T03:03:04.962Z,384.00
2019-06-07T03:04:04.918Z,400.00
2019-06-07T03:05:04.911Z,424.00
2019-06-07T03:06:04.855Z,448.00
2019-06-07T03:07:04.875Z,484.00
2019-06-07T03:08:04.786Z,512.00
2019-06-07T03:09:04.738Z,544.00
2019-06-07T03:10:04.790Z,576.00
2019-06-07T03:11:04.665Z,620.00
2019-06-07T03:12:04.638Z,668.00
2019-06-07T03:13:04.572Z,716.00
2019-06-07T03:14:04.547Z,764.00
2019-06-07T03:15:04.508Z,796.00
2019-06-07T03:16:04.486Z,832.00
2019-06-07T03:17:04.442Z,876.00
2019-06-07T03:18:04.397Z,924.00
2019-06-07T03:19:04.366Z,980.00
2019-06-07T03:20:04.331Z,1048.00
2019-06-07T03:21:05.602Z,1108.00
2019-06-07T03:22:04.243Z,1168.00
2019-06-07T03:23:04.441Z,1228.00
2019-06-07T03:24:04.166Z,1280.00
2019-06-07T03:25:04.133Z,1336.00
2019-06-07T03:26:04.095Z,1400.00
2019-06-07T03:27:32.688Z,1464.00
2019-06-07T03:28:04.016Z,1540.00
2019-06-07T03:29:04.029Z,1620.00
2019-06-07T03:30:35.423Z,1700.00
2019-06-07T03:31:03.946Z,1772.00
2019-06-07T03:32:03.957Z,1860.00
2019-06-07T03:33:03.899Z,1948.00
2019-06-07T03:34:03.820Z,2016.00
2019-06-07T03:35:03.808Z,2080.00
2019-06-07T03:36:22.693Z,2128.00
2019-06-07T03:37:03.710Z,2188.00
2019-06-07T03:38:03.674Z,2208.00
2019-06-07T03:39:03.625Z,2204.00
2019-06-07T03:40:03.640Z,2228.00
2019-06-07T03:41:03.568Z,2260.00
2019-06-07T03:42:06.628Z,2328.00
2019-06-07T03:43:03.528Z,2392.00
2019-06-07T03:44:03.439Z,2436.00
2019-06-07T03:45:03.408Z,2476.00
2019-06-07T03:46:03.360Z,2492.00
2019-06-07T03:47:03.329Z,2508.00
2019-06-07T03:48:03.277Z,2524.00
2019-06-07T03:49:03.262Z,2524.00
2019-06-07T03:50:03.221Z,2536.00
2019-06-07T03:51:04.897Z,2552.00
2019-06-07T03:52:03.145Z,2588.00
2019-06-07T03:53:03.110Z,2636.00
2019-06-07T03:54:03.072Z,2712.00
2019-06-07T03:55:03.031Z,2788.00
2019-06-07T03:56:03.079Z,2884.00
2019-06-07T03:57:02.957Z,3016.00
2019-06-07T03:58:31.389Z,3120.00
2019-06-07T03:59:02.890Z,3104.00
2019-06-07T04:00:02.859Z,3040.00
2019-06-07T04:01:02.826Z,3032.00
2019-06-07T04:02:02.806Z,3092.00
2019-06-07T04:03:02.784Z,3160.00
2019-06-07T04:04:02.719Z,3228.00
2019-06-07T04:05:02.692Z,3304.00
2019-06-07T04:06:02.638Z,3396.00
2019-06-07T04:07:02.637Z,3520.00
2019-06-07T04:08:02.567Z,3696.00
2019-06-07T04:09:02.560Z,3872.00
2019-06-07T04:10:02.485Z,3992.00
2019-06-07T04:11:02.488Z,4160.00
2019-06-07T04:12:02.397Z,4388.00
2019-06-07T04:13:02.413Z,4584.00
2019-06-07T04:14:02.349Z,4688.00
2019-06-07T04:15:02.295Z,4732.00
2019-06-07T04:16:02.261Z,4780.00
2019-06-07T04:17:02.281Z,4876.00
2019-06-07T04:18:03.997Z,4960.00
2019-06-07T04:19:02.245Z,4972.00
2019-06-07T04:20:02.255Z,4920.00
2019-06-07T04:21:02.085Z,4836.00
2019-06-07T04:22:02.095Z,4904.00
2019-06-07T04:23:02.000Z,5200.00
2019-06-07T04:24:01.980Z,5500.00
2019-06-07T04:25:01.931Z,5724.00
2019-06-07T04:26:01.901Z,5920.00
2019-06-07T04:27:01.870Z,6128.00
2019-06-07T04:28:01.821Z,6456.00
2019-06-07T04:29:32.591Z,6916.00
2019-06-07T04:30:07.349Z,7448.00
2019-06-07T04:31:01.718Z,8004.00
2019-06-07T04:32:04.141Z,8492.00
2019-06-07T04:33:01.648Z,8776.00
2019-06-07T04:34:01.612Z,8920.00
2019-06-07T04:35:01.643Z,9000.00
2019-06-07T04:36:01.583Z,9188.00
2019-06-07T04:37:01.500Z,9520.00
2019-06-07T04:38:01.462Z,9764.00
2019-06-07T04:39:01.488Z,9796.00
2019-06-07T04:40:01.402Z,9464.00
2019-06-07T04:41:01.374Z,9012.00
2019-06-07T04:42:01.324Z,8596.00
2019-06-07T04:43:01.314Z,8424.00
2019-06-07T04:44:01.312Z,8504.00
2019-06-07T04:45:01.246Z,8440.00
2019-06-07T04:46:01.196Z,9572.00
2019-06-07T04:47:01.181Z,11404.00
2019-06-07T04:48:01.173Z,11736.00
2019-06-07T04:49:01.062Z,13000.00
2019-06-07T04:50:01.021Z,13288.00
2019-06-07T04:51:01.048Z,13204.00
2019-06-07T04:52:00.941Z,13224.00
2019-06-07T04:53:00.911Z,13400.00
2019-06-07T04:54:00.892Z,13228.00
2019-06-07T04:55:00.893Z,12836.00
2019-06-07T04:56:00.854Z,12616.00
2019-06-07T04:57:00.965Z,12792.00
2019-06-07T04:58:00.768Z,13060.00
2019-06-07T04:59:00.702Z,12848.00
2019-06-07T05:00:12.756Z,12408.00
2019-06-07T05:01:03.351Z,12524.00
2019-06-07T05:02:00.590Z,13020.00
2019-06-07T05:03:00.552Z,12932.00
2019-06-07T05:04:00.523Z,12640.00
2019-06-07T05:05:00.494Z,12000.00
2019-06-07T05:06:00.452Z,11332.00
2019-06-07T05:07:00.430Z,11844.00
2019-06-07T05:08:07.151Z,11636.00
2019-06-07T05:09:00.367Z,11340.00
2019-06-07T05:10:00.343Z,11288.00
2019-06-07T05:11:00.306Z,11476.00
2019-06-07T05:12:00.333Z,12064.00
2019-06-07T05:13:00.264Z,12588.00
2019-06-07T05:14:00.164Z,13068.00
2019-06-07T05:15:00.140Z,13660.00
2019-06-07T05:16:00.104Z,13884.00
2019-06-07T05:17:00.118Z,14020.00
2019-06-07T05:18:00.040Z,14072.00
2019-06-07T05:19:00.015Z,14128.00
2019-06-07T05:19:59.995Z,14268.00
2019-06-07T05:21:00.027Z,14084.00
2019-06-07T05:22:04.825Z,14036.00
2019-06-07T05:22:59.899Z,14080.00
2019-06-07T05:24:08.423Z,14344.00
2019-06-07T05:24:59.827Z,14744.00
2019-06-07T05:25:59.744Z,14368.00
2019-06-07T05:26:59.705Z,13524.00
2019-06-07T05:27:59.682Z,12968.00
2019-06-07T05:28:59.647Z,12704.00
2019-06-07T05:30:09.517Z,12668.00
2019-06-07T05:31:05.315Z,13012.00
2019-06-07T05:31:59.536Z,12744.00
2019-06-07T05:32:59.499Z,12444.00
2019-06-07T05:33:59.469Z,12108.00
2019-06-07T05:34:59.474Z,11840.00
2019-06-07T05:35:59.403Z,11668.00
2019-06-07T05:37:11.688Z,11988.00
2019-06-07T05:37:59.345Z,13104.00
2019-06-07T05:38:59.317Z,14184.00
2019-06-07T05:39:59.283Z,14804.00
2019-06-07T05:40:59.231Z,15232.00
2019-06-07T05:41:59.223Z,15252.00
2019-06-07T05:42:59.161Z,15152.00
2019-06-07T05:44:12.060Z,15492.00
2019-06-07T05:44:59.127Z,16048.00
2019-06-07T05:45:59.055Z,16488.00
2019-06-07T05:46:59.061Z,16964.00
2019-06-07T05:48:02.711Z,17204.00
2019-06-07T05:48:59.006Z,16888.00
2019-06-07T05:49:58.928Z,16428.00
2019-06-07T05:50:58.880Z,16228.00
2019-06-07T05:52:00.810Z,16168.00
2019-06-07T05:52:58.817Z,16468.00
2019-06-07T05:53:58.765Z,16300.00
2019-06-07T05:54:58.737Z,15956.00
2019-06-07T05:55:58.716Z,15436.00
2019-06-07T05:56:58.676Z,15292.00
2019-06-07T05:57:58.674Z,15348.00
2019-06-07T05:58:58.600Z,16040.00
2019-06-07T05:59:58.554Z,16692.00
2019-06-07T06:01:41.028Z,17240.00
2019-06-07T06:02:05.033Z,18624.00
2019-06-07T06:03:05.192Z,20288.00
2019-06-07T06:03:58.431Z,21536.00
2019-06-07T06:04:58.417Z,22176.00
2019-06-07T06:05:58.368Z,22624.00
2019-06-07T06:06:58.323Z,22144.00
2019-06-07T06:07:58.354Z,21088.00
2019-06-07T06:09:13.530Z,19968.00
2019-06-07T06:09:58.230Z,19488.00
2019-06-07T06:10:58.203Z,20032.00
2019-06-07T06:12:02.325Z,20864.00
2019-06-07T06:12:58.193Z,20832.00
2019-06-07T06:14:07.588Z,19712.00
2019-06-07T06:14:58.107Z,19616.00
2019-06-07T06:16:02.069Z,20320.00
2019-06-07T06:16:58.013Z,20480.00
2019-06-07T06:17:58.042Z,19872.00
2019-06-07T06:18:57.938Z,19840.00
2019-06-07T06:19:57.891Z,20640.00
2019-06-07T06:21:16.446Z,21792.00
2019-06-07T06:21:57.864Z,22784.00
2019-06-07T06:22:57.869Z,23616.00
2019-06-07T06:23:57.779Z,23744.00
2019-06-07T06:25:58.464Z,24416.00
2019-06-07T06:27:15.188Z,24576.00
2019-06-07T06:28:10.029Z,24256.00
2019-06-07T06:28:57.605Z,23424.00
2019-06-07T06:29:57.552Z,22944.00
2019-06-07T06:30:57.531Z,22592.00
2019-06-07T06:32:40.357Z,21824.00
2019-06-07T06:32:58.686Z,21280.00
2019-06-07T06:33:57.418Z,21408.00
2019-06-07T06:34:57.391Z,24640.00
2019-06-07T06:35:57.419Z,27520.00
2019-06-07T06:36:57.323Z,29536.00
2019-06-07T06:37:57.300Z,29632.00
2019-06-07T06:38:57.273Z,28416.00
2019-06-07T06:39:57.241Z,27424.00
2019-06-07T06:41:14.580Z,26752.00
2019-06-07T06:42:03.502Z,26464.00
2019-06-07T06:42:57.165Z,26080.00
2019-06-07T06:43:57.107Z,26592.00
2019-06-07T06:44:57.071Z,26432.00
2019-06-07T06:45:57.034Z,25280.00
2019-06-07T06:46:58.384Z,24256.00
2019-06-07T06:47:56.961Z,25536.00
2019-06-07T06:48:57.011Z,26560.00
2019-06-07T06:49:56.906Z,25952.00
2019-06-07T06:50:56.929Z,24576.00
2019-06-07T06:51:56.837Z,26176.00
2019-06-07T06:52:56.808Z,26592.00
2019-06-07T06:53:56.810Z,27072.00
2019-06-07T06:55:00.936Z,28416.00
2019-06-07T06:55:56.698Z,28256.00
2019-06-07T06:57:17.558Z,28736.00
2019-06-07T06:57:56.646Z,30240.00
2019-06-07T06:59:56.580Z,30112.00
2019-06-07T07:01:05.767Z,30816.00
2019-06-07T07:01:56.505Z,30080.00
2019-06-07T07:04:10.549Z,27840.00
2019-06-07T07:04:56.415Z,30304.00
2019-06-07T07:05:56.393Z,31008.00
2019-06-07T07:06:56.350Z,31680.00
2019-06-07T07:07:56.312Z,33728.00
2019-06-07T07:08:56.289Z,33856.00
2019-06-07T07:09:59.347Z,35552.00
2019-06-07T07:10:56.244Z,36160.00
2019-06-07T07:12:11.132Z,34976.00
2019-06-07T07:12:56.169Z,37120.00
2019-06-07T07:13:57.079Z,39232.00
2019-06-07T07:14:56.344Z,40288.00
2019-06-07T07:15:58.249Z,47136.00
2019-06-07T07:16:56.815Z,52960.00
2019-06-07T07:18:07.977Z,48576.00
2019-06-07T07:18:55.978Z,42528.00
2019-06-07T07:19:56.021Z,36256.00
2019-06-07T07:20:57.547Z,36672.00
2019-06-07T07:21:55.891Z,36352.00
2019-06-07T07:22:57.097Z,37760.00
2019-06-07T07:24:19.795Z,42912.00
2019-06-07T07:24:55.840Z,49248.00
2019-06-07T07:25:59.503Z,54016.00
2019-06-07T07:26:58.361Z,53440.00
2019-06-07T07:27:55.721Z,48928.00
2019-06-07T07:28:57.815Z,46208.00
2019-06-07T07:30:34.280Z,47456.00
2019-06-07T07:30:57.167Z,51840.00
2019-06-07T07:31:56.574Z,48832.00
2019-06-07T07:32:59.340Z,47776.00
2019-06-07T07:35:00.342Z,45280.00
2019-06-07T07:36:17.570Z,44128.00
2019-06-07T07:36:59.700Z,43040.00
2019-06-07T07:37:59.639Z,44096.00
2019-06-07T07:39:04.126Z,49408.00
2019-06-07T07:40:01.712Z,53792.00
2019-06-07T07:41:07.384Z,52704.00
2019-06-07T07:42:18.081Z,55200.00
2019-06-07T07:42:56.823Z,59424.00
2019-06-07T07:44:05.391Z,61376.00
2019-06-07T07:44:56.822Z,54400.00
2019-06-07T07:46:01.627Z,46400.00
2019-06-07T07:46:56.358Z,43360.00
2019-06-07T07:48:08.192Z,45568.00
2019-06-07T07:48:56.213Z,44544.00
2019-06-07T07:49:58.094Z,45376.00
2019-06-07T07:51:00.363Z,42464.00
2019-06-07T07:51:58.475Z,35200.00
2019-06-07T07:53:00.300Z,35520.00
2019-06-07T07:54:09.084Z,42144.00
2019-06-07T07:54:56.690Z,43456.00
2019-06-07T07:55:59.689Z,54624.00
2019-06-07T07:56:56.110Z,59584.00
2019-06-07T07:58:01.114Z,52608.00
2019-06-07T07:59:01.074Z,53408.00
2019-06-07T08:00:25.256Z,94624.00
2019-06-07T08:01:07.659Z,105696.00
2019-06-07T08:01:56.103Z,105472.00
2019-06-07T08:02:58.618Z,52480.00
2019-06-07T08:03:56.273Z,51904.00
2019-06-07T08:05:20.554Z,80000.00
2019-06-07T08:05:58.586Z,71648.00
2019-06-07T08:06:56.065Z,55936.00
2019-06-07T08:08:00.192Z,55840.00
2019-06-07T08:08:56.953Z,69120.00
2019-06-07T08:09:59.595Z,75808.00
2019-06-07T08:10:56.438Z,73920.00
2019-06-07T08:12:00.092Z,72352.00
2019-06-07T08:13:14.170Z,63392.00
2019-06-07T08:13:57.307Z,70048.00
2019-06-07T08:14:58.522Z,69088.00
2019-06-07T08:15:58.764Z,64160.00
2019-06-07T08:16:56.435Z,54496.00
2019-06-07T08:17:59.631Z,58464.00
2019-06-07T08:18:58.588Z,120896.00
2019-06-07T08:19:55.060Z,106272.00
2019-06-07T08:21:17.206Z,127072.00
2019-06-07T08:21:55.672Z,112896.00
2019-06-07T08:22:58.867Z,58528.00
2019-06-07T08:23:58.325Z,50080.00
2019-06-07T08:24:55.973Z,84608.00
2019-06-07T08:25:57.252Z,80736.00
2019-06-07T08:27:18.285Z,57824.00
2019-06-07T08:27:56.006Z,44480.00
2019-06-07T08:28:58.452Z,44480.00
2019-06-07T08:30:08.864Z,48576.00
2019-06-07T08:31:03.652Z,80256.00
2019-06-07T08:31:55.813Z,88480.00
2019-06-07T08:33:01.487Z,111584.00
2019-06-07T08:33:57.995Z,132544.00
2019-06-07T08:34:59.774Z,105824.00
2019-06-07T08:36:54.919Z,39648.00
2019-06-07T08:38:21.469Z,36128.00
2019-06-07T08:38:57.867Z,35328.00
2019-06-07T08:39:56.759Z,37280.00
2019-06-07T08:40:59.074Z,40928.00
2019-06-07T08:42:09.782Z,42880.00
2019-06-07T08:43:10.806Z,41984.00
2019-06-07T08:43:56.460Z,39168.00
2019-06-07T08:44:54.327Z,38048.00
2019-06-07T08:46:01.148Z,37792.00
2019-06-07T08:47:11.584Z,37504.00
2019-06-07T08:47:59.393Z,36960.00
2019-06-07T08:48:55.978Z,35488.00
2019-06-07T08:49:56.749Z,33920.00
2019-06-07T08:50:55.324Z,32384.00
2019-06-07T08:52:02.593Z,31552.00
2019-06-07T08:52:56.984Z,31232.00
2019-06-07T08:54:08.676Z,30816.00
2019-06-07T08:54:54.892Z,30016.00
2019-06-07T08:55:58.769Z,29376.00
2019-06-07T08:56:58.263Z,29792.00
2019-06-07T08:57:57.240Z,32768.00
2019-06-07T08:58:55.013Z,39840.00
2019-06-07T08:59:55.687Z,42144.00
2019-06-07T09:00:55.525Z,40224.00
2019-06-07T09:01:57.975Z,37376.00
2019-06-07T09:02:54.979Z,35488.00
2019-06-07T09:03:59.562Z,34944.00
2019-06-07T09:04:56.410Z,35360.00
2019-06-07T09:05:54.189Z,34784.00
2019-06-07T09:07:07.258Z,33216.00
2019-06-07T09:08:12.988Z,30784.00
2019-06-07T09:08:53.823Z,28896.00
2019-06-07T09:09:58.550Z,27584.00
2019-06-07T09:10:54.066Z,26784.00
2019-06-07T09:11:54.726Z,26528.00
2019-06-07T09:12:57.895Z,27552.00
2019-06-07T09:13:54.473Z,28768.00
2019-06-07T09:15:06.863Z,30368.00
2019-06-07T09:15:55.184Z,32320.00
2019-06-07T09:16:55.404Z,32704.00
2019-06-07T09:18:57.043Z,32320.00
2019-06-07T09:19:54.137Z,33280.00
2019-06-07T09:20:52.541Z,34240.00
2019-06-07T09:21:52.541Z,33184.00
2019-06-07T09:22:52.504Z,30720.00
2019-06-07T09:23:52.472Z,30848.00
2019-06-07T09:24:52.432Z,33600.00
2019-06-07T09:26:02.572Z,35424.00
2019-06-07T09:26:52.430Z,35424.00
2019-06-07T09:27:52.362Z,34944.00
2019-06-07T09:28:52.325Z,33248.00
2019-06-07T09:29:52.303Z,31776.00
2019-06-07T09:30:52.319Z,30976.00
2019-06-07T09:31:53.703Z,29696.00
2019-06-07T09:32:52.255Z,29472.00
2019-06-07T09:33:52.203Z,29344.00
2019-06-07T09:34:52.157Z,28832.00
2019-06-07T09:35:52.142Z,28992.00
2019-06-07T09:36:52.082Z,32096.00
2019-06-07T09:38:07.323Z,35712.00
2019-06-07T09:38:52.035Z,37728.00
2019-06-07T09:39:52.003Z,38400.00
2019-06-07T09:40:51.972Z,40256.00
2019-06-07T09:41:51.939Z,41216.00
2019-06-07T09:43:38.658Z,42656.00
2019-06-07T09:44:04.731Z,41216.00
2019-06-07T09:44:51.847Z,40448.00
2019-06-07T09:45:51.816Z,41632.00
2019-06-07T09:47:12.500Z,43584.00
2019-06-07T09:47:51.826Z,45408.00
2019-06-07T09:49:51.700Z,46688.00
2019-06-07T09:50:51.696Z,47904.00
2019-06-07T09:51:51.639Z,47232.00
2019-06-07T09:52:58.555Z,44576.00
2019-06-07T09:53:51.591Z,43584.00
2019-06-07T09:55:19.693Z,44384.00
2019-06-07T09:55:51.520Z,43232.00
2019-06-07T09:56:51.487Z,44256.00
2019-06-07T09:57:51.480Z,46720.00
2019-06-07T09:58:53.562Z,47968.00
2019-06-07T09:59:51.416Z,48448.00
2019-06-07T10:00:51.377Z,49824.00
2019-06-07T10:01:51.353Z,52704.00
2019-06-07T10:02:51.328Z,54240.00
2019-06-07T10:03:51.312Z,55200.00
2019-06-07T10:04:51.269Z,54720.00
2019-06-07T10:05:51.235Z,52672.00
2019-06-07T10:06:51.215Z,50848.00
2019-06-07T10:08:00.497Z,49280.00
2019-06-07T10:10:19.621Z,55904.00
2019-06-07T10:10:51.087Z,61984.00
2019-06-07T10:11:51.073Z,63072.00
2019-06-07T10:12:51.037Z,64480.00
2019-06-07T10:13:51.008Z,71008.00
2019-06-07T10:14:50.968Z,61984.00
2019-06-07T10:15:53.659Z,53216.00
2019-06-07T10:16:50.917Z,47776.00
2019-06-07T10:17:50.895Z,46144.00
2019-06-07T10:18:50.866Z,45856.00
2019-06-07T10:19:50.838Z,47520.00
2019-06-07T10:20:50.804Z,51264.00
2019-06-07T10:21:50.784Z,52256.00
2019-06-07T10:22:50.782Z,51776.00
2019-06-07T10:23:50.744Z,55232.00
2019-06-07T10:24:50.693Z,67008.00
2019-06-07T10:25:50.688Z,67424.00
2019-06-07T10:26:50.654Z,68128.00
2019-06-07T10:27:50.653Z,66368.00
2019-06-07T10:28:53.370Z,77536.00
2019-06-07T10:29:50.561Z,73728.00
2019-06-07T10:30:50.559Z,70080.00
2019-06-07T10:31:50.516Z,73344.00
2019-06-07T10:32:52.157Z,70144.00
2019-06-07T10:33:50.445Z,58080.00
2019-06-07T10:34:50.426Z,54528.00
2019-06-07T10:35:50.412Z,57472.00
2019-06-07T10:36:50.375Z,57312.00
2019-06-07T10:37:50.343Z,63712.00
2019-06-07T10:38:50.305Z,63904.00
2019-06-07T10:39:50.291Z,59584.00
2019-06-07T10:40:50.254Z,58336.00
2019-06-07T10:41:50.245Z,61504.00
2019-06-07T10:42:50.220Z,70080.00
2019-06-07T10:43:50.196Z,67072.00
2019-06-07T10:44:50.170Z,65856.00
2019-06-07T10:45:50.157Z,61152.00
2019-06-07T10:46:50.108Z,56736.00
2019-06-07T10:47:50.109Z,56416.00
2019-06-07T10:48:50.054Z,59680.00
2019-06-07T10:49:50.017Z,58752.00
2019-06-07T10:50:50.020Z,54976.00
2019-06-07T10:51:49.966Z,51872.00
2019-06-07T10:52:49.955Z,51456.00
2019-06-07T10:53:49.915Z,53952.00
2019-06-07T10:54:49.911Z,58752.00
2019-06-07T10:55:49.893Z,71680.00
2019-06-07T10:56:49.836Z,74592.00
2019-06-07T10:57:49.809Z,67840.00
2019-06-07T10:58:49.773Z,61632.00
2019-06-07T10:59:49.752Z,91456.00
2019-06-07T11:00:49.761Z,77248.00
2019-06-07T11:01:49.708Z,55456.00
2019-06-07T11:02:49.685Z,51456.00
2019-06-07T11:03:49.653Z,60928.00
2019-06-07T11:04:49.617Z,65024.00
2019-06-07T11:05:49.600Z,62560.00
2019-06-07T11:06:49.567Z,64864.00
2019-06-07T11:07:49.547Z,77600.00
2019-06-07T11:08:49.547Z,61376.00
2019-06-07T11:10:05.699Z,56928.00
2019-06-07T11:10:49.505Z,67104.00
2019-06-07T11:11:49.488Z,65184.00
2019-06-07T11:12:49.454Z,76544.00
2019-06-07T11:13:52.367Z,86752.00
2019-06-07T11:14:49.355Z,84544.00
2019-06-07T11:15:49.380Z,64576.00
2019-06-07T11:16:49.329Z,89312.00
2019-06-07T11:17:49.279Z,90944.00
2019-06-07T11:18:49.248Z,71936.00
2019-06-07T11:19:49.252Z,63616.00
2019-06-07T11:20:49.208Z,66784.00
2019-06-07T11:21:49.193Z,74176.00
2019-06-07T11:22:49.165Z,69408.00
2019-06-07T11:23:49.122Z,73216.00
2019-06-07T11:24:49.188Z,96544.00
2019-06-07T11:25:49.088Z,66208.00
2019-06-07T11:26:49.065Z,67552.00
2019-06-07T11:27:49.027Z,90208.00
2019-06-07T11:28:49.056Z,72576.00
2019-06-07T11:29:48.983Z,64352.00
2019-06-07T11:30:48.959Z,60256.00
2019-06-07T11:31:48.929Z,58592.00
2019-06-07T11:32:48.901Z,58656.00
2019-06-07T11:33:48.891Z,56160.00
2019-06-07T11:34:48.870Z,51456.00
2019-06-07T11:35:48.882Z,49952.00
2019-06-07T11:36:51.031Z,50368.00
2019-06-07T11:37:48.786Z,49728.00
2019-06-07T11:38:48.762Z,46176.00
2019-06-07T11:39:48.763Z,46784.00
2019-06-07T11:40:48.835Z,47488.00
2019-06-07T11:41:48.719Z,48384.00
2019-06-07T11:42:48.675Z,47936.00
2019-06-07T11:43:48.633Z,46848.00
2019-06-07T11:44:56.668Z,44768.00
2019-06-07T11:45:48.601Z,43008.00
2019-06-07T11:46:48.552Z,41440.00
2019-06-07T11:47:48.524Z,38304.00
2019-06-07T11:48:48.488Z,38240.00
2019-06-07T11:49:48.651Z,41440.00
2019-06-07T11:50:48.459Z,45952.00
2019-06-07T11:51:48.432Z,47488.00
2019-06-07T11:52:48.392Z,48992.00
2019-06-07T11:53:48.421Z,52960.00
2019-06-07T11:54:48.368Z,53952.00
2019-06-07T11:55:48.333Z,55520.00
2019-06-07T11:56:48.338Z,54848.00
2019-06-07T11:57:48.290Z,55520.00
2019-06-07T11:58:48.316Z,60288.00
2019-06-07T11:59:48.273Z,60512.00
2019-06-07T12:00:48.236Z,59520.00
2019-06-07T12:01:48.217Z,60256.00
2019-06-07T12:02:48.180Z,60224.00
2019-06-07T12:03:48.123Z,61056.00
2019-06-07T12:04:48.101Z,61728.00
2019-06-07T12:05:48.070Z,65472.00
2019-06-07T12:06:48.082Z,86112.00
2019-06-07T12:07:48.038Z,65600.00
2019-06-07T12:08:48.004Z,83712.00
2019-06-07T12:09:56.352Z,90880.00
2019-06-07T12:10:47.982Z,88000.00
2019-06-07T12:11:47.921Z,86944.00
2019-06-07T12:12:47.911Z,81600.00
2019-06-07T12:13:47.886Z,69600.00
2019-06-07T12:14:47.860Z,73248.00
2019-06-07T12:15:49.174Z,70720.00